createdAt,value
2022-10-30T00:00:33.477Z,17.92
2022-10-30T00:03:36.392Z,16.52
2022-10-30T00:06:40.814Z,16.95
2022-10-30T00:09:43.392Z,14.70
2022-10-30T00:12:46.167Z,15.30
2022-10-30T00:15:50.900Z,15.55
2022-10-30T00:18:53.941Z,13.13
2022-10-30T00:24:59.902Z,13.35
2022-10-30T00:28:02.583Z,13.73
2022-10-30T00:31:06.330Z,15.23
2022-10-30T00:34:09.492Z,13.77
2022-10-30T00:37:13.602Z,15.32
2022-10-30T00:40:17.848Z,15.57
2022-10-30T00:43:32.521Z,17.37
2022-10-30T00:46:40.319Z,16.55
2022-10-30T00:49:51.311Z,15.65
2022-10-30T00:53:00.956Z,17.15
2022-10-30T00:56:08.219Z,15.57
2022-10-30T00:59:13.845Z,14.93
2022-10-30T01:02:17.649Z,15.13
2022-10-30T01:05:24.270Z,18.67
2022-10-30T01:08:28.880Z,17.63
2022-10-30T01:11:31.500Z,18.33
2022-10-30T01:14:37.505Z,17.33
2022-10-30T01:18:30.458Z,15.88
2022-10-30T01:21:44.549Z,20.88
2022-10-30T01:25:01.529Z,16.48
2022-10-30T01:28:15.087Z,19.03
2022-10-30T01:31:29.511Z,17.27
2022-10-30T01:37:51.716Z,18.52
2022-10-30T01:40:55.893Z,18.80
2022-10-30T01:44:02.841Z,18.17
2022-10-30T01:47:22.127Z,17.50
2022-10-30T01:50:34.101Z,19.90
2022-10-30T01:53:47.234Z,18.67
2022-10-30T01:57:01.092Z,16.70
2022-10-30T02:00:07.594Z,16.97
2022-10-30T02:03:10.855Z,17.30
2022-10-30T02:06:13.824Z,18.00
2022-10-30T02:09:17.309Z,17.35
2022-10-30T02:12:22.172Z,19.98
2022-10-30T02:15:25.300Z,17.17
2022-10-30T02:18:30.205Z,21.63
2022-10-30T02:21:34.525Z,17.42
2022-10-30T02:24:37.218Z,19.90
2022-10-30T02:27:40.034Z,17.42
2022-10-30T02:30:44.254Z,17.80
2022-10-30T02:33:47.351Z,18.47
2022-10-30T02:36:51.365Z,16.90
2022-10-30T02:39:54.226Z,17.25
2022-10-30T02:42:56.943Z,16.98
2022-10-30T02:45:59.652Z,17.03
2022-10-30T02:49:03.985Z,16.47
2022-10-30T02:52:12.330Z,18.13
2022-10-30T02:55:15.121Z,18.60
2022-10-30T02:58:18.408Z,16.83
2022-10-30T03:01:21.685Z,17.20
2022-10-30T03:04:24.417Z,19.03
2022-10-30T03:07:28.585Z,18.10
2022-10-30T03:10:31.238Z,16.58
2022-10-30T03:13:35.372Z,17.25
2022-10-30T03:16:38.959Z,18.27
2022-10-30T03:19:41.811Z,19.27
2022-10-30T03:22:45.858Z,19.40
2022-10-30T03:25:48.601Z,16.30
2022-10-30T03:28:51.479Z,19.48
2022-10-30T03:31:54.883Z,17.20
2022-10-30T03:34:57.465Z,17.20
2022-10-30T03:38:01.557Z,16.85
2022-10-30T03:41:05.494Z,15.85
2022-10-30T03:44:08.205Z,17.77
2022-10-30T03:50:21.174Z,18.50
2022-10-30T03:53:26.490Z,16.58
2022-10-30T03:56:29.705Z,17.55
2022-10-30T03:59:32.378Z,18.77
2022-10-30T04:02:35.065Z,17.88
2022-10-30T04:05:38.294Z,16.98
2022-10-30T04:08:42.304Z,17.35
2022-10-30T04:11:45.152Z,18.95
2022-10-30T04:14:47.845Z,16.83
2022-10-30T04:17:51.463Z,17.52
2022-10-30T04:20:54.670Z,17.85
2022-10-30T04:23:58.693Z,21.05
2022-10-30T04:27:01.555Z,18.80
2022-10-30T04:30:04.857Z,18.13
2022-10-30T04:33:11.820Z,18.02
2022-10-30T04:36:14.697Z,16.05
2022-10-30T04:39:18.749Z,15.20
2022-10-30T04:42:21.358Z,17.60
2022-10-30T04:45:24.275Z,15.40
2022-10-30T04:48:27.375Z,16.60
2022-10-30T04:51:30.289Z,17.23
2022-10-30T04:54:34.401Z,17.30
2022-10-30T04:57:37.274Z,17.15
2022-10-30T05:00:43.783Z,15.53
2022-10-30T05:03:48.129Z,15.45
2022-10-30T05:06:53.327Z,15.50
2022-10-30T05:09:57.371Z,16.25
2022-10-30T05:13:00.268Z,20.33
2022-10-30T05:16:02.975Z,16.77
2022-10-30T05:19:05.586Z,18.50
2022-10-30T05:22:09.407Z,18.35
2022-10-30T05:25:13.569Z,18.17
2022-10-30T05:28:16.126Z,17.45
2022-10-30T05:31:18.799Z,17.33
2022-10-30T05:34:21.329Z,16.27
2022-10-30T05:37:24.142Z,17.00
2022-10-30T05:40:28.687Z,17.88
2022-10-30T05:43:31.220Z,17.77
2022-10-30T05:46:33.975Z,18.17
2022-10-30T05:49:36.535Z,15.82
2022-10-30T05:52:39.248Z,15.07
2022-10-30T05:55:43.345Z,15.80
2022-10-30T05:58:46.101Z,15.50
2022-10-30T06:01:48.816Z,19.80
2022-10-30T06:04:51.416Z,17.67
2022-10-30T06:07:56.083Z,17.07
2022-10-30T06:11:00.244Z,16.70
2022-10-30T06:14:03.566Z,16.10
2022-10-30T06:17:06.439Z,14.68
2022-10-30T06:20:09.870Z,15.82
2022-10-30T06:23:12.544Z,16.20
2022-10-30T06:26:16.443Z,16.15
2022-10-30T06:29:19.256Z,15.30
2022-10-30T06:32:21.993Z,13.98
2022-10-30T06:35:24.662Z,15.07
2022-10-30T06:38:27.351Z,15.60
2022-10-30T06:41:31.261Z,15.10
2022-10-30T06:44:33.903Z,16.90
2022-10-30T06:47:36.816Z,15.98
2022-10-30T06:50:39.750Z,13.88
2022-10-30T06:53:42.443Z,14.17
2022-10-30T06:56:50.964Z,14.23
2022-10-30T06:59:53.787Z,14.55
2022-10-30T07:02:58.457Z,16.00
2022-10-30T07:06:02.033Z,14.55
2022-10-30T07:09:04.742Z,14.17
2022-10-30T07:12:09.869Z,15.40
2022-10-30T07:15:12.435Z,16.30
2022-10-30T07:18:15.105Z,14.57
2022-10-30T07:21:17.810Z,15.75
2022-10-30T07:24:20.575Z,14.90
2022-10-30T07:27:24.718Z,13.57
2022-10-30T07:30:28.562Z,14.57
2022-10-30T07:33:31.298Z,15.98
2022-10-30T07:36:34.070Z,14.98
2022-10-30T07:39:36.795Z,15.10
2022-10-30T07:42:41.650Z,12.50
2022-10-30T07:45:46.020Z,16.27
2022-10-30T07:48:48.754Z,14.25
2022-10-30T07:51:51.316Z,15.27
2022-10-30T07:54:57.344Z,15.63
2022-10-30T07:58:01.587Z,13.65
2022-10-30T08:01:04.694Z,14.15
2022-10-30T08:04:07.524Z,15.55
2022-10-30T08:07:10.301Z,16.48
2022-10-30T08:10:13.157Z,13.97
2022-10-30T08:13:18.690Z,15.73
2022-10-30T08:16:21.734Z,15.77
2022-10-30T08:19:24.526Z,14.98
2022-10-30T08:22:27.253Z,12.30
2022-10-30T08:25:31.829Z,15.23
2022-10-30T08:28:35.843Z,16.80
2022-10-30T08:31:38.505Z,14.60
2022-10-30T08:34:41.123Z,13.70
2022-10-30T08:37:43.871Z,14.53
2022-10-30T08:40:46.656Z,15.10
2022-10-30T08:43:50.678Z,15.30
2022-10-30T08:46:53.654Z,16.08
2022-10-30T08:49:56.216Z,16.63
2022-10-30T08:53:02.354Z,19.47
2022-10-30T08:56:05.900Z,13.80
2022-10-30T08:59:09.986Z,16.48
2022-10-30T09:02:12.727Z,13.77
2022-10-30T09:05:15.524Z,17.77
2022-10-30T09:08:18.187Z,14.30
2022-10-30T09:11:20.870Z,16.80
2022-10-30T09:14:25.050Z,12.70
2022-10-30T09:17:27.982Z,12.93
2022-10-30T09:20:31.689Z,12.90
2022-10-30T09:23:34.585Z,12.73
2022-10-30T09:26:37.148Z,12.57
2022-10-30T09:29:41.227Z,12.63
2022-10-30T09:32:43.800Z,11.38
2022-10-30T09:35:48.288Z,13.93
2022-10-30T09:38:51.057Z,13.47
2022-10-30T09:42:10.328Z,12.13
2022-10-30T09:45:47.851Z,13.73
2022-10-30T09:49:06.981Z,11.98
2022-10-30T09:52:17.764Z,12.97
2022-10-30T09:55:31.164Z,11.73
2022-10-30T09:58:44.789Z,13.20
2022-10-30T10:01:53.496Z,10.52
2022-10-30T10:05:01.210Z,12.60
2022-10-30T10:08:08.580Z,11.77
2022-10-30T10:11:15.897Z,10.23
2022-10-30T10:14:22.765Z,13.10
2022-10-30T10:17:32.439Z,10.85
2022-10-30T10:20:41.303Z,10.95
2022-10-30T10:23:49.570Z,10.17
2022-10-30T10:26:58.714Z,13.23
2022-10-30T10:30:06.533Z,10.95
2022-10-30T10:33:27.517Z,17.85
2022-10-30T10:36:40.531Z,12.48
2022-10-30T10:39:57.164Z,15.07
2022-10-30T10:43:12.596Z,10.30
2022-10-30T10:46:32.392Z,11.68
2022-10-30T10:49:47.501Z,10.98
2022-10-30T10:52:55.418Z,10.82
2022-10-30T10:56:01.038Z,10.23
2022-10-30T10:59:09.613Z,13.27
2022-10-30T11:02:31.588Z,12.73
2022-10-30T11:05:40.448Z,8.73
2022-10-30T11:08:46.400Z,10.77
2022-10-30T11:11:49.715Z,12.93
2022-10-30T11:14:52.984Z,10.40
2022-10-30T11:18:02.271Z,9.77
2022-10-30T11:21:13.707Z,13.38
2022-10-30T11:24:31.303Z,12.40
2022-10-30T11:27:37.947Z,10.00
2022-10-30T11:30:43.553Z,12.63
2022-10-30T11:33:49.537Z,10.23
2022-10-30T11:36:54.719Z,11.32
2022-10-30T11:40:03.784Z,9.95
2022-10-30T11:43:06.981Z,10.13
2022-10-30T11:46:12.823Z,11.30
2022-10-30T11:49:27.801Z,8.82
2022-10-30T11:52:38.805Z,10.73
2022-10-30T11:55:47.258Z,11.75
2022-10-30T11:58:53.078Z,9.50
2022-10-30T12:02:00.909Z,11.47
2022-10-30T12:05:04.477Z,12.48
2022-10-30T12:08:23.787Z,12.48
2022-10-30T12:11:30.973Z,12.43
2022-10-30T12:14:34.400Z,10.50
2022-10-30T12:17:40.255Z,11.93
2022-10-30T12:20:47.404Z,13.00
2022-10-30T12:23:56.594Z,10.30
2022-10-30T12:27:03.631Z,8.63
2022-10-30T12:30:16.115Z,11.80
2022-10-30T12:33:25.279Z,13.43
2022-10-30T12:36:33.532Z,11.20
2022-10-30T12:39:51.814Z,11.73
2022-10-30T12:43:03.086Z,12.68
2022-10-30T12:46:17.252Z,11.67
2022-10-30T12:49:26.630Z,11.30
2022-10-30T12:52:35.139Z,11.52
2022-10-30T12:55:42.541Z,11.35
2022-10-30T12:58:49.123Z,12.55
2022-10-30T13:01:59.267Z,10.27
2022-10-30T13:05:06.608Z,10.73
2022-10-30T13:08:18.813Z,11.65
2022-10-30T13:11:30.525Z,10.57
2022-10-30T13:14:40.157Z,10.65
2022-10-30T13:17:42.706Z,12.93
2022-10-30T13:21:02.692Z,13.37
2022-10-30T13:24:11.955Z,12.73
2022-10-30T13:27:22.302Z,11.63
2022-10-30T13:30:30.650Z,9.93
2022-10-30T13:33:41.168Z,9.27
2022-10-30T13:36:50.891Z,10.70
2022-10-30T13:40:05.752Z,10.90
2022-10-30T13:43:21.890Z,9.45
2022-10-30T13:46:39.828Z,10.35
2022-10-30T13:50:00.198Z,10.63
2022-10-30T13:53:05.729Z,10.07
2022-10-30T13:56:14.313Z,12.10
2022-10-30T13:59:32.573Z,9.93
2022-10-30T14:02:57.338Z,8.90
2022-10-30T14:06:10.474Z,11.73
2022-10-30T14:09:22.197Z,10.18
2022-10-30T14:12:46.433Z,9.80
2022-10-30T14:15:54.880Z,10.77
2022-10-30T14:19:02.380Z,10.33
2022-10-30T14:22:05.014Z,11.52
2022-10-30T14:25:14.922Z,10.05
2022-10-30T14:28:21.196Z,11.23
2022-10-30T14:31:36.983Z,10.20
2022-10-30T14:34:43.948Z,9.50
2022-10-30T14:37:57.960Z,10.18
2022-10-30T14:41:14.387Z,10.45
2022-10-30T14:44:36.987Z,8.07
2022-10-30T14:48:08.521Z,8.90
2022-10-30T14:51:17.684Z,11.40
2022-10-30T14:54:28.899Z,9.13
2022-10-30T14:57:52.295Z,10.25
2022-10-30T15:01:24.813Z,11.48
2022-10-30T15:04:41.320Z,10.02
2022-10-30T15:07:52.015Z,10.43
2022-10-30T15:11:17.836Z,11.40
2022-10-30T15:14:40.467Z,16.10
2022-10-30T15:17:53.795Z,23.08
2022-10-30T15:21:05.050Z,27.73
2022-10-30T15:24:15.342Z,20.50
2022-10-30T15:27:20.533Z,14.48
2022-10-30T15:30:24.698Z,9.63
2022-10-30T15:33:27.267Z,9.77
2022-10-30T15:36:41.664Z,9.15
2022-10-30T15:39:44.231Z,10.27
2022-10-30T15:42:50.158Z,10.27
2022-10-30T15:45:54.948Z,10.93
2022-10-30T15:48:57.678Z,8.40
2022-10-30T15:52:04.196Z,8.80
2022-10-30T15:55:10.531Z,9.87
2022-10-30T15:58:17.430Z,11.00
2022-10-30T16:01:27.393Z,10.55
2022-10-30T16:04:34.578Z,10.43
2022-10-30T16:07:47.071Z,12.50
2022-10-30T16:10:50.584Z,10.07
2022-10-30T16:13:53.582Z,9.15
2022-10-30T16:17:00.299Z,10.20
2022-10-30T16:20:05.437Z,11.45
2022-10-30T16:23:09.879Z,10.65
2022-10-30T16:26:26.013Z,9.10
2022-10-30T16:29:29.513Z,11.93
2022-10-30T16:32:32.970Z,9.43
2022-10-30T16:35:35.603Z,10.73
2022-10-30T16:38:40.304Z,11.82
2022-10-30T16:41:43.889Z,11.10
2022-10-30T16:44:47.440Z,9.57
2022-10-30T16:47:53.993Z,12.00
2022-10-30T16:51:01.942Z,11.13
2022-10-30T16:54:06.183Z,9.02
2022-10-30T16:57:15.969Z,10.47
2022-10-30T17:00:25.800Z,10.52
2022-10-30T17:03:34.968Z,10.73
2022-10-30T17:06:41.115Z,8.90
2022-10-30T17:09:46.922Z,11.38
2022-10-30T17:12:49.507Z,10.10
2022-10-30T17:15:52.217Z,9.32
2022-10-30T17:18:56.951Z,11.00
2022-10-30T17:22:01.734Z,11.32
2022-10-30T17:25:17.123Z,10.85
2022-10-30T17:28:27.598Z,10.23
2022-10-30T17:31:42.576Z,12.77
2022-10-30T17:34:45.273Z,10.55
2022-10-30T17:37:47.894Z,11.35
2022-10-30T17:40:52.021Z,10.93
2022-10-30T17:43:57.358Z,10.43
2022-10-30T17:47:01.381Z,11.40
2022-10-30T17:50:05.509Z,11.48
2022-10-30T17:53:13.869Z,10.27
2022-10-30T17:56:20.368Z,8.95
2022-10-30T17:59:23.048Z,11.57
2022-10-30T18:02:25.926Z,9.90
2022-10-30T18:05:31.631Z,10.43
2022-10-30T18:08:34.376Z,10.95
2022-10-30T18:11:38.788Z,11.27
2022-10-30T18:14:43.250Z,10.73
2022-10-30T18:17:45.864Z,10.20
2022-10-30T18:20:48.536Z,11.10
2022-10-30T18:23:52.767Z,11.82
2022-10-30T18:26:58.819Z,13.23
2022-10-30T18:30:01.457Z,13.90
2022-10-30T18:33:04.473Z,12.93
2022-10-30T18:36:12.099Z,8.85
2022-10-30T18:39:14.927Z,10.57
2022-10-30T18:42:19.001Z,9.82
2022-10-30T18:45:24.202Z,10.73
2022-10-30T18:48:26.775Z,12.23
2022-10-30T18:51:30.367Z,10.73
2022-10-30T18:54:32.914Z,9.02
2022-10-30T18:57:37.001Z,11.43
2022-10-30T19:01:10.099Z,11.33
2022-10-30T19:04:04.600Z,11.38
2022-10-30T19:07:07.300Z,11.57
2022-10-30T19:10:10.597Z,10.50
2022-10-30T19:13:17.010Z,10.43
2022-10-30T19:16:20.987Z,11.10
2022-10-30T19:19:23.566Z,13.30
2022-10-30T19:22:26.389Z,11.25
2022-10-30T19:25:32.310Z,12.13
2022-10-30T19:28:38.365Z,13.32
2022-10-30T19:31:40.920Z,13.70
2022-10-30T19:34:45.931Z,11.93
2022-10-30T19:37:48.549Z,12.48
2022-10-30T19:40:51.807Z,11.88
2022-10-30T19:43:55.955Z,13.00
2022-10-30T19:46:58.649Z,14.33
2022-10-30T19:50:01.187Z,14.05
2022-10-30T19:53:05.033Z,12.70
2022-10-30T19:56:10.504Z,13.60
2022-10-30T19:59:16.235Z,13.60
2022-10-30T20:02:18.922Z,12.00
2022-10-30T20:05:24.288Z,12.95
2022-10-30T20:08:28.010Z,11.38
2022-10-30T20:11:31.995Z,11.63
2022-10-30T20:14:35.929Z,13.20
2022-10-30T20:17:38.629Z,11.63
2022-10-30T20:20:46.242Z,11.02
2022-10-30T20:23:48.873Z,11.82
2022-10-30T20:26:51.681Z,14.13
2022-10-30T20:29:55.645Z,11.93
2022-10-30T20:32:58.661Z,13.33
2022-10-30T20:36:01.810Z,11.93
2022-10-30T20:39:05.375Z,13.40
2022-10-30T20:42:10.048Z,14.45
2022-10-30T20:45:19.709Z,15.18
2022-10-30T20:48:22.233Z,17.83
2022-10-30T20:51:24.954Z,15.75
2022-10-30T20:54:27.549Z,14.52
2022-10-30T20:57:30.262Z,14.38
2022-10-30T21:00:34.308Z,14.52
2022-10-30T21:03:37.059Z,15.70
2022-10-30T21:06:39.644Z,15.43
2022-10-30T21:09:42.259Z,14.60
2022-10-30T21:12:44.887Z,14.85
2022-10-30T21:15:51.463Z,17.05
2022-10-30T21:18:54.634Z,17.47
2022-10-30T21:21:57.302Z,14.52
2022-10-30T21:25:00.075Z,14.80
2022-10-30T21:28:03.241Z,15.23
2022-10-30T21:31:09.523Z,16.38
2022-10-30T21:34:13.606Z,14.93
2022-10-30T21:37:16.321Z,15.75
2022-10-30T21:40:20.078Z,17.70
2022-10-30T21:43:22.700Z,14.07
2022-10-30T21:46:28.902Z,16.67
2022-10-30T21:49:31.598Z,19.30
2022-10-30T21:52:34.868Z,19.92
2022-10-30T21:55:38.536Z,16.70
2022-10-30T21:58:41.314Z,18.17
2022-10-30T22:01:46.449Z,17.35
2022-10-30T22:04:49.324Z,18.27
2022-10-30T22:07:52.615Z,18.50
2022-10-30T22:10:55.289Z,18.13
2022-10-30T22:14:00.469Z,17.20
2022-10-30T22:17:04.512Z,18.30
2022-10-30T22:20:08.426Z,19.17
2022-10-30T22:23:11.231Z,20.25
2022-10-30T22:26:17.631Z,20.50
2022-10-30T22:29:20.349Z,16.88
2022-10-30T22:32:24.364Z,18.67
2022-10-30T22:35:27.095Z,20.25
2022-10-30T22:38:29.690Z,18.45
2022-10-30T22:41:37.666Z,19.45
2022-10-30T22:44:40.967Z,19.88
2022-10-30T22:47:45.009Z,21.47
2022-10-30T22:50:47.530Z,21.65
2022-10-30T22:53:57.020Z,22.95
2022-10-30T22:56:59.599Z,20.67
2022-10-30T23:00:02.343Z,21.10
2022-10-30T23:03:06.381Z,26.20
2022-10-30T23:06:09.668Z,20.50
2022-10-30T23:09:17.241Z,23.05
2022-10-30T23:12:20.091Z,21.75
2022-10-30T23:15:22.655Z,25.15
2022-10-30T23:18:26.966Z,21.80
2022-10-30T23:21:31.664Z,24.73
2022-10-30T23:24:34.840Z,25.13
2022-10-30T23:27:37.398Z,24.50
2022-10-30T23:30:42.927Z,23.98
2022-10-30T23:33:49.219Z,24.13
2022-10-30T23:36:52.889Z,24.05
2022-10-30T23:39:56.801Z,24.38
2022-10-30T23:43:00.284Z,24.92
2022-10-30T23:46:03.752Z,23.92
2022-10-30T23:49:08.790Z,24.60
2022-10-30T23:52:11.501Z,23.20
2022-10-30T23:55:14.226Z,24.20
